Terminal Aerodrome Forecast
Issued by NWS Portland, OR

Home | Current Version | Previous Version | Text Only | Print | Product List | Glossary On
Versions: 1 2 3 4 5 6 7 8 9 10 11 12 13 14 15 16 17 18 19 20 21 22 23 24 25
073
FTUS46 KPQR 220520
TAFEUG
TAF
KEUG 220520Z 2206/2306 23003KT P6SM FEW035 OVC060
     FM221500 05003KT P6SM OVC050
     FM221700 18015KT 4SM -RA OVC050
     FM222000 18010KT P6SM -SHRA OVC050
     FM230000 21010KT P6SM BKN050=

USA.gov is the U.S. government's official web portal to all federal, state and local government web resources and services.